Time;durP1;ratioP1;P1;durP2;ratioP2;P2;SDS_P1;SDS_P2;PMS_P1;PMS_P2;Temp;Humidity;BMP_temperature;BMP_pressure;BME280_temperature;BME280_humidity;BME280_pressure;Samples;Min_cycle;Max_cycle;Signal;HPM_P1;HPM_P2
2021/09/10 00:00:16;;;;;;;5.60;4.70;;;20.40;1.00;;;;;;5048714;28;20192;-57
2021/09/10 00:02:42;;;;;;;5.27;4.80;;;20.40;1.00;;;;;;5043764;28;20244;-56
2021/09/10 00:05:08;;;;;;;5.30;4.80;;;20.40;1.00;;;;;;5038868;28;20193;-57
2021/09/10 00:07:34;;;;;;;5.90;5.13;;;20.40;1.00;;;;;;5048453;28;20279;-57
2021/09/10 00:10:00;;;;;;;6.20;5.00;;;20.50;1.00;;;;;;5049001;28;20543;-57
2021/09/10 00:12:25;;;;;;;5.60;5.10;;;20.40;1.00;;;;;;5049652;28;20184;-56
2021/09/10 00:14:51;;;;;;;4.87;4.47;;;20.30;1.00;;;;;;5052668;28;20731;-57
2021/09/10 00:17:16;;;;;;;5.53;5.03;;;20.30;1.00;;;;;;5051589;28;20205;-57
2021/09/10 00:19:42;;;;;;;7.23;4.90;;;20.20;1.00;;;;;;5051065;28;20550;-58
2021/09/10 00:22:07;;;;;;;6.80;4.60;;;20.30;1.00;;;;;;5052212;28;20275;-56
2021/09/10 00:24:33;;;;;;;5.33;4.30;;;20.30;1.00;;;;;;5051790;28;20178;-57
2021/09/10 00:26:58;;;;;;;10.27;5.03;;;20.20;1.00;;;;;;5051443;28;20267;-56
2021/09/10 00:29:24;;;;;;;8.13;4.77;;;20.20;1.00;;;;;;5052993;28;20265;-57
2021/09/10 00:31:49;;;;;;;7.23;4.27;;;20.20;1.00;;;;;;5052771;28;20194;-56
2021/09/10 00:34:15;;;;;;;8.30;5.50;;;20.20;1.00;;;;;;5050393;28;20216;-56
2021/09/10 00:36:44;;;;;;;5.53;4.80;;;20.30;1.00;;;;;;5052113;28;20239;-58
2021/09/10 00:39:11;;;;;;;6.40;5.10;;;20.30;1.00;;;;;;5052742;28;20504;-56
2021/09/10 00:41:37;;;;;;;6.73;4.37;;;20.30;1.00;;;;;;5051441;28;20590;-56
2021/09/10 00:44:03;;;;;;;5.00;4.60;;;20.30;1.00;;;;;;5050298;28;20903;-56
2021/09/10 00:46:29;;;;;;;6.60;4.53;;;20.30;1.00;;;;;;5052738;28;20198;-57
2021/09/10 00:48:54;;;;;;;4.80;4.27;;;20.30;1.00;;;;;;5062774;28;20671;-57
2021/09/10 00:51:20;;;;;;;5.83;5.00;;;20.20;1.00;;;;;;5050511;28;20458;-55
2021/09/10 00:53:46;;;;;;;5.17;4.67;;;20.10;1.00;;;;;;5052699;28;20208;-58
2021/09/10 00:56:11;;;;;;;7.27;4.70;;;20.20;1.00;;;;;;5050614;28;20181;-57
2021/09/10 00:58:37;;;;;;;6.90;4.00;;;20.20;1.00;;;;;;5052757;28;20208;-56
2021/09/10 01:01:02;;;;;;;9.33;4.80;;;20.30;1.00;;;;;;5051051;28;20185;-56
2021/09/10 01:03:28;;;;;;;5.60;4.50;;;20.20;1.00;;;;;;5050718;28;20186;-56
2021/09/10 01:05:54;;;;;;;8.10;5.03;;;20.20;1.00;;;;;;5043717;28;20191;-55
2021/09/10 01:08:21;;;;;;;4.37;3.97;;;20.10;1.00;;;;;;5050984;28;20182;-57
2021/09/10 01:10:49;;;;;;;6.10;4.30;;;20.10;1.00;;;;;;5050021;28;20508;-56
2021/09/10 01:13:15;;;;;;;5.13;4.43;;;20.10;1.00;;;;;;5051289;28;20470;-56
2021/09/10 01:15:41;;;;;;;4.90;4.37;;;20.20;1.00;;;;;;5052654;28;20450;-56
2021/09/10 01:18:07;;;;;;;4.43;4.10;;;20.20;1.00;;;;;;5052229;28;20427;-57
2021/09/10 01:20:32;;;;;;;4.40;4.00;;;20.10;1.00;;;;;;5050189;28;20219;-56
2021/09/10 01:22:58;;;;;;;4.50;4.10;;;20.10;1.00;;;;;;5049903;28;20193;-55
2021/09/10 01:25:23;;;;;;;4.93;4.40;;;20.00;1.00;;;;;;5050610;28;20180;-56
2021/09/10 01:27:54;;;;;;;5.33;4.00;;;20.00;1.00;;;;;;5051933;28;20182;-56
2021/09/10 01:30:28;;;;;;;5.10;3.97;;;20.00;1.00;;;;;;5053881;28;20184;-55
2021/09/10 01:32:54;;;;;;;5.40;4.63;;;20.00;1.00;;;;;;5067830;28;20435;-57
2021/09/10 01:35:20;;;;;;;10.67;5.13;;;20.00;1.00;;;;;;5050974;28;20474;-56
2021/09/10 01:37:46;;;;;;;4.70;3.90;;;19.90;1.00;;;;;;5050890;28;20193;-55
2021/09/10 01:40:12;;;;;;;5.43;3.87;;;20.00;1.00;;;;;;5049859;28;20204;-56
2021/09/10 01:42:39;;;;;;;9.20;3.80;;;19.90;1.00;;;;;;5051049;28;20475;-56
2021/09/10 01:45:07;;;;;;;6.03;4.17;;;19.90;1.00;;;;;;5051383;28;20774;-56
2021/09/10 01:47:34;;;;;;;5.60;4.23;;;20.00;1.00;;;;;;5049748;28;20861;-57
2021/09/10 01:50:00;;;;;;;5.50;4.43;;;19.90;1.00;;;;;;5051718;28;20451;-56
2021/09/10 01:52:26;;;;;;;4.93;3.80;;;19.90;1.00;;;;;;5050670;28;20483;-58
2021/09/10 01:54:51;;;;;;;7.70;4.00;;;20.00;1.00;;;;;;5050801;28;21011;-57
2021/09/10 01:57:17;;;;;;;6.50;4.37;;;20.00;1.00;;;;;;5051215;28;20655;-56
2021/09/10 01:59:43;;;;;;;4.40;4.00;;;19.90;1.00;;;;;;5050843;28;20520;-56
2021/09/10 02:02:10;;;;;;;3.97;3.67;;;19.90;1.00;;;;;;5049066;28;20192;-56
2021/09/10 02:04:36;;;;;;;5.37;4.13;;;19.80;1.00;;;;;;5043935;28;20451;-56
2021/09/10 02:07:01;;;;;;;9.17;4.30;;;19.90;1.00;;;;;;5051210;28;20508;-56
2021/09/10 02:09:27;;;;;;;4.67;4.00;;;19.80;1.00;;;;;;5050865;28;20192;-55
2021/09/10 02:11:52;;;;;;;6.57;4.50;;;19.80;1.00;;;;;;5050858;28;21793;-57
2021/09/10 02:14:18;;;;;;;8.00;4.20;;;19.90;1.00;;;;;;5049522;28;20243;-57
2021/09/10 02:16:43;;;;;;;5.33;3.47;;;19.90;1.00;;;;;;5050813;28;20538;-57
2021/09/10 02:19:09;;;;;;;7.80;3.83;;;19.90;1.00;;;;;;5045101;28;20321;-57
2021/09/10 02:21:36;;;;;;;7.90;3.70;;;19.80;1.00;;;;;;5049476;28;20617;-58
2021/09/10 02:24:02;;;;;;;4.77;3.97;;;19.90;1.00;;;;;;5050373;28;20439;-57
2021/09/10 02:26:28;;;;;;;5.10;3.60;;;19.70;1.00;;;;;;5046818;28;20947;-56
2021/09/10 02:28:53;;;;;;;4.50;4.10;;;19.70;1.00;;;;;;5050352;28;20465;-57
2021/09/10 02:31:19;;;;;;;4.50;3.80;;;19.80;1.00;;;;;;5050665;28;20566;-57
2021/09/10 02:33:45;;;;;;;4.17;3.70;;;19.80;1.00;;;;;;5049276;28;20209;-56
2021/09/10 02:36:11;;;;;;;4.03;3.70;;;19.70;1.00;;;;;;5049538;28;20215;-55
2021/09/10 02:38:37;;;;;;;4.23;3.83;;;19.70;1.00;;;;;;5049632;28;20447;-57
2021/09/10 02:41:02;;;;;;;5.33;3.37;;;19.70;1.00;;;;;;5050231;28;20244;-57
2021/09/10 02:43:28;;;;;;;5.53;4.27;;;19.70;1.00;;;;;;5049025;28;20667;-56
2021/09/10 02:45:53;;;;;;;4.80;3.90;;;19.70;1.00;;;;;;5049473;28;20188;-56
2021/09/10 02:48:19;;;;;;;5.80;4.30;;;19.70;1.00;;;;;;5050671;28;20191;-55
2021/09/10 02:50:44;;;;;;;9.57;4.63;;;19.70;1.00;;;;;;5050074;28;20305;-55
2021/09/10 02:53:10;;;;;;;3.60;3.27;;;19.70;1.00;;;;;;5049020;28;20188;-56
2021/09/10 02:55:37;;;;;;;4.80;3.90;;;19.60;1.00;;;;;;5050277;28;20185;-57
2021/09/10 02:58:03;;;;;;;6.80;4.10;;;19.40;1.00;;;;;;5047878;28;20242;-57
2021/09/10 03:00:29;;;;;;;5.83;3.50;;;19.60;1.00;;;;;;5048983;28;20538;-57
2021/09/10 03:02:54;;;;;;;8.13;4.13;;;19.60;1.00;;;;;;5044858;28;20457;-57
2021/09/10 03:05:20;;;;;;;4.67;3.50;;;19.60;1.00;;;;;;5049248;28;20200;-57
2021/09/10 03:07:45;;;;;;;5.57;3.50;;;19.60;1.00;;;;;;5048029;28;20204;-56
2021/09/10 03:10:11;;;;;;;8.13;3.97;;;19.60;1.00;;;;;;5049324;28;20575;-56
2021/09/10 03:12:40;;;;;;;3.80;3.50;;;19.50;1.00;;;;;;5049844;28;20193;-56
2021/09/10 03:15:09;;;;;;;5.40;3.37;;;19.60;1.00;;;;;;5049215;28;20478;-57
2021/09/10 03:17:35;;;;;;;3.67;3.37;;;19.60;1.00;;;;;;5048956;28;20463;-55
2021/09/10 03:20:00;;;;;;;6.67;3.63;;;19.60;1.00;;;;;;5048410;28;20876;-57
2021/09/10 03:22:26;;;;;;;5.23;3.13;;;19.60;1.00;;;;;;5048947;28;20493;-57
2021/09/10 03:24:52;;;;;;;4.27;3.50;;;19.50;1.00;;;;;;5048724;28;20176;-57
2021/09/10 03:27:17;;;;;;;4.00;3.60;;;19.70;1.00;;;;;;5049058;28;20251;-55
2021/09/10 03:29:43;;;;;;;5.63;3.73;;;19.60;1.00;;;;;;5044945;28;20242;-55
2021/09/10 03:32:08;;;;;;;4.80;3.83;;;19.60;1.00;;;;;;5048135;28;20185;-56
2021/09/10 03:34:34;;;;;;;3.87;3.43;;;19.50;1.00;;;;;;5048953;28;20566;-55
2021/09/10 03:37:00;;;;;;;3.73;3.33;;;19.40;1.00;;;;;;5048372;28;20216;-55
2021/09/10 03:39:25;;;;;;;4.40;3.37;;;19.40;1.00;;;;;;5049709;28;20234;-57
2021/09/10 03:41:51;;;;;;;6.93;4.00;;;19.40;1.00;;;;;;5048776;28;20698;-57
2021/09/10 03:44:17;;;;;;;4.23;3.10;;;19.40;1.00;;;;;;5049552;28;20192;-55
2021/09/10 03:46:43;;;;;;;6.43;5.07;;;19.40;1.00;;;;;;5047822;28;20458;-57
2021/09/10 03:49:08;;;;;;;3.93;3.47;;;19.40;1.00;;;;;;5050799;28;20669;-55
2021/09/10 03:51:34;;;;;;;6.00;3.50;;;;;;;;;;5051464;28;20200;-56
2021/09/10 03:54:00;;;;;;;6.67;3.70;;;19.40;1.00;;;;;;5052670;28;20225;-56
2021/09/10 03:56:25;;;;;;;3.93;3.53;;;19.50;1.00;;;;;;5049583;28;20446;-56
2021/09/10 03:58:51;;;;;;;3.70;3.40;;;19.50;1.00;;;;;;5051239;28;20196;-56
2021/09/10 04:01:17;;;;;;;6.43;3.97;;;19.50;1.00;;;;;;5053309;28;20208;-56
2021/09/10 04:03:43;;;;;;;3.73;3.40;;;19.40;1.00;;;;;;5043715;28;20203;-55
2021/09/10 04:06:09;;;;;;;4.10;3.77;;;19.40;1.00;;;;;;5052993;28;20462;-55
2021/09/10 04:08:35;;;;;;;5.00;3.93;;;19.40;1.00;;;;;;5052783;28;20598;-56
2021/09/10 04:11:01;;;;;;;6.90;3.90;;;19.50;1.00;;;;;;5051758;28;20459;-57
2021/09/10 04:13:26;;;;;;;5.10;3.47;;;19.40;1.00;;;;;;5052989;28;20211;-57
2021/09/10 04:15:52;;;;;;;4.43;3.00;;;19.30;1.00;;;;;;5052724;28;20200;-58
2021/09/10 04:18:17;;;;;;;9.90;3.37;;;19.40;1.00;;;;;;5053243;28;20187;-57
2021/09/10 04:20:43;;;;;;;6.07;3.47;;;19.20;1.00;;;;;;5052129;28;20552;-58
2021/09/10 04:23:08;;;;;;;4.90;3.50;;;19.20;1.00;;;;;;5052806;28;20195;-58
2021/09/10 04:25:34;;;;;;;4.03;3.67;;;19.10;1.00;;;;;;5052373;28;20255;-59
2021/09/10 04:27:59;;;;;;;6.47;4.20;;;19.20;1.00;;;;;;5053446;28;20189;-57
2021/09/10 04:30:25;;;;;;;5.80;3.30;;;19.10;1.00;;;;;;5052653;28;20253;-58
2021/09/10 04:32:50;;;;;;;11.70;3.80;;;19.10;1.00;;;;;;5052158;28;20233;-57
2021/09/10 04:35:16;;;;;;;6.30;3.67;;;19.10;1.00;;;;;;5051874;28;20274;-59
2021/09/10 04:37:42;;;;;;;4.57;3.83;;;19.10;1.00;;;;;;5051516;28;20212;-58
2021/09/10 04:40:08;;;;;;;5.53;3.90;;;19.10;1.00;;;;;;5052475;28;20192;-59
2021/09/10 04:42:35;;;;;;;6.00;3.77;;;19.10;1.00;;;;;;5052748;28;20432;-57
2021/09/10 04:45:01;;;;;;;4.30;3.83;;;19.10;1.00;;;;;;5052672;28;20481;-58
2021/09/10 04:47:27;;;;;;;8.20;4.10;;;19.10;1.00;;;;;;5067384;28;20438;-57
2021/09/10 04:49:53;;;;;;;5.10;3.77;;;19.00;1.00;;;;;;5072369;28;20434;-55
2021/09/10 04:52:19;;;;;;;5.93;3.33;;;19.00;1.00;;;;;;5072762;28;20238;-55
2021/09/10 04:54:44;;;;;;;5.50;4.33;;;19.10;1.00;;;;;;5062875;28;20482;-57
2021/09/10 04:57:10;;;;;;;7.17;4.03;;;19.10;1.00;;;;;;5051555;28;20429;-56
2021/09/10 04:59:35;;;;;;;5.60;3.47;;;19.00;1.00;;;;;;5052406;28;20562;-56
2021/09/10 05:02:01;;;;;;;4.13;3.50;;;19.00;1.00;;;;;;5052460;28;20647;-55
2021/09/10 05:04:27;;;;;;;6.37;3.70;;;19.10;1.00;;;;;;5052460;28;20174;-55
2021/09/10 05:06:52;;;;;;;5.63;3.63;;;19.20;1.00;;;;;;5050420;28;20194;-57
2021/09/10 05:09:18;;;;;;;6.40;3.73;;;19.10;1.00;;;;;;5052296;28;20185;-56
2021/09/10 05:11:44;;;;;;;9.63;4.20;;;19.20;1.00;;;;;;5052259;28;20186;-56
2021/09/10 05:14:09;;;;;;;6.33;3.30;;;19.30;1.00;;;;;;5052301;28;20203;-56
2021/09/10 05:16:38;;;;;;;9.63;4.30;;;19.20;1.00;;;;;;5052663;28;20188;-55
2021/09/10 05:19:04;;;;;;;5.00;4.50;;;19.30;1.00;;;;;;5069180;28;20406;-56
2021/09/10 05:21:30;;;;;;;5.17;3.80;;;19.30;1.00;;;;;;5052204;28;20443;-54
2021/09/10 05:23:56;;;;;;;7.93;3.97;;;19.30;1.00;;;;;;5051859;28;20276;-55
2021/09/10 05:26:21;;;;;;;7.33;4.10;;;19.30;1.00;;;;;;5052147;28;20948;-56
2021/09/10 05:28:47;;;;;;;6.43;4.20;;;19.30;1.00;;;;;;5051912;28;20185;-55
2021/09/10 05:31:13;;;;;;;7.83;4.03;;;18.80;1.00;;;;;;5052435;28;20236;-56
2021/09/10 05:33:38;;;;;;;7.10;4.17;;;19.40;1.00;;;;;;5051626;28;20216;-56
2021/09/10 05:36:04;;;;;;;6.47;4.00;;;19.40;1.00;;;;;;5051037;28;20248;-56
2021/09/10 05:38:30;;;;;;;4.93;3.53;;;19.50;1.00;;;;;;5050659;28;20201;-55
2021/09/10 05:40:56;;;;;;;8.30;3.70;;;19.50;1.00;;;;;;5051611;28;20480;-55
2021/09/10 05:43:21;;;;;;;7.13;4.00;;;19.70;1.00;;;;;;5050187;28;20524;-56
2021/09/10 05:45:48;;;;;;;12.60;4.90;;;19.70;1.00;;;;;;5051610;28;20259;-55
2021/09/10 05:48:18;;;;;;;4.40;4.00;;;19.70;1.00;;;;;;5051270;28;20181;-56
2021/09/10 05:50:44;;;;;;;3.97;3.57;;;19.80;1.00;;;;;;5051677;28;20492;-56
2021/09/10 05:53:10;;;;;;;5.63;4.07;;;19.90;1.00;;;;;;5051058;28;20425;-56
2021/09/10 05:55:35;;;;;;;9.70;4.00;;;20.00;1.00;;;;;;5051150;28;20447;-55
2021/09/10 05:58:01;;;;;;;7.17;4.30;;;20.10;1.00;;;;;;5066949;28;20541;-55
2021/09/10 06:00:26;;;;;;;7.30;3.60;;;20.10;1.00;;;;;;5071422;28;20184;-57
2021/09/10 06:02:52;;;;;;;4.93;3.90;;;20.10;1.00;;;;;;5071252;28;20671;-56
2021/09/10 06:05:17;;;;;;;8.77;3.50;;;20.10;1.00;;;;;;5065161;28;20674;-57
2021/09/10 06:07:43;;;;;;;6.80;4.00;;;20.20;1.00;;;;;;5051199;28;20268;-55
2021/09/10 06:10:12;;;;;;;8.20;4.17;;;20.30;1.00;;;;;;5051130;28;20201;-55
2021/09/10 06:12:38;;;;;;;4.30;3.90;;;20.40;1.00;;;;;;5050764;28;20211;-55
2021/09/10 06:15:04;;;;;;;8.50;4.50;;;20.40;1.00;;;;;;5051010;28;20445;-55
2021/09/10 06:17:29;;;;;;;4.30;3.30;;;20.50;1.00;;;;;;5050393;28;20178;-57
2021/09/10 06:19:55;;;;;;;5.60;3.63;;;20.50;1.00;;;;;;5050698;28;20169;-54
2021/09/10 06:22:20;;;;;;;7.80;3.73;;;20.60;1.00;;;;;;5050267;28;20185;-56
2021/09/10 06:24:46;;;;;;;5.83;4.20;;;20.70;1.00;;;;;;5050480;28;20221;-56
2021/09/10 06:27:11;;;;;;;5.40;4.00;;;20.70;1.00;;;;;;5050286;28;20193;-56
2021/09/10 06:29:37;;;;;;;5.20;3.83;;;20.80;1.00;;;;;;5050508;28;20650;-56
2021/09/10 06:32:03;;;;;;;7.50;4.10;;;20.80;1.00;;;;;;5050460;28;20192;-55
2021/09/10 06:34:29;;;;;;;7.13;3.57;;;21.00;1.00;;;;;;5050445;28;20281;-55
2021/09/10 06:36:55;;;;;;;5.37;3.53;;;21.10;1.00;;;;;;5049228;28;20210;-55
2021/09/10 06:39:21;;;;;;;4.93;4.07;;;21.10;1.00;;;;;;5049543;28;20924;-56
2021/09/10 06:41:47;;;;;;;4.23;3.83;;;21.20;1.00;;;;;;5049212;28;20207;-57
2021/09/10 06:44:12;;;;;;;5.33;4.20;;;21.30;1.00;;;;;;5049620;28;20213;-55
2021/09/10 06:46:38;;;;;;;5.40;3.90;;;21.40;1.00;;;;;;5049085;28;20259;-57
2021/09/10 06:49:04;;;;;;;16.93;4.40;;;21.40;1.00;;;;;;5050071;28;20278;-57
2021/09/10 06:51:29;;;;;;;4.90;3.60;;;21.60;1.00;;;;;;5049180;28;20553;-57
2021/09/10 06:53:55;;;;;;;9.13;3.83;;;21.50;1.00;;;;;;5047691;28;20219;-57
2021/09/10 06:56:21;;;;;;;5.13;4.30;;;21.70;1.00;;;;;;5049008;28;20180;-57
2021/09/10 06:58:46;;;;;;;4.17;3.77;;;21.70;1.00;;;;;;5049142;28;20193;-57
2021/09/10 07:01:12;;;;;;;4.43;3.37;;;21.90;1.00;;;;;;5048816;28;20707;-56
2021/09/10 07:03:38;;;;;;;4.70;3.90;;;21.90;1.00;;;;;;5048110;28;20308;-57
2021/09/10 07:06:04;;;;;;;6.17;4.00;;;21.80;1.00;;;;;;5049463;28;20474;-56
2021/09/10 07:08:31;;;;;;;6.77;3.67;;;21.90;1.00;;;;;;5055494;28;20669;-57
2021/09/10 07:10:57;;;;;;;4.60;3.70;;;22.00;1.00;;;;;;5053165;28;20751;-55
2021/09/10 07:13:23;;;;;;;4.73;3.80;;;22.10;1.00;;;;;;5049369;28;20443;-56
2021/09/10 07:15:49;;;;;;;4.80;4.27;;;22.30;1.00;;;;;;5049064;28;20840;-57
2021/09/10 07:18:14;;;;;;;4.57;3.67;;;22.40;1.00;;;;;;5049644;28;20188;-56
2021/09/10 07:20:40;;;;;;;5.93;3.60;;;22.50;1.00;;;;;;5048432;28;20233;-56
2021/09/10 07:23:06;;;;;;;4.97;3.83;;;22.70;1.00;;;;;;5048046;28;20188;-57
2021/09/10 07:25:31;;;;;;;4.60;3.80;;;22.80;1.00;;;;;;5049219;28;20646;-56
2021/09/10 07:27:57;;;;;;;5.53;3.70;;;22.90;1.00;;;;;;5048748;28;20192;-56
2021/09/10 07:30:22;;;;;;;5.33;3.90;;;23.20;1.00;;;;;;5049103;28;20266;-57
2021/09/10 07:32:48;;;;;;;4.20;3.60;;;23.20;1.00;;;;;;5047695;28;20279;-55
2021/09/10 07:37:52;;;;;;;5.50;3.50;;;23.20;1.00;;;;;;5066759;28;20576;-55
2021/09/10 07:40:18;;;;;;;4.67;3.83;;;23.10;1.00;;;;;;5067299;28;20438;-57
2021/09/10 07:42:44;;;;;;;4.97;3.93;;;23.20;1.00;;;;;;5067480;28;20196;-55
2021/09/10 07:45:12;;;;;;;5.07;4.27;;;23.40;1.00;;;;;;5066044;28;20183;-56
2021/09/10 07:47:38;;;;;;;4.10;3.40;;;23.40;1.00;;;;;;5066648;28;20405;-57
2021/09/10 07:50:04;;;;;;;7.80;3.53;;;23.50;1.00;;;;;;5067132;28;20473;-57
2021/09/10 07:52:29;;;;;;;6.83;3.97;;;23.70;1.00;;;;;;5067502;28;20470;-56
2021/09/10 07:54:55;;;;;;;4.60;3.57;;;23.90;1.00;;;;;;5067238;28;20438;-57
2021/09/10 07:57:20;;;;;;;6.73;4.00;;;24.00;1.00;;;;;;5066422;28;20209;-55
2021/09/10 07:59:46;;;;;;;3.73;3.43;;;24.10;1.00;;;;;;5067152;28;20222;-57
2021/09/10 08:02:11;;;;;;;9.17;4.53;;;24.30;1.00;;;;;;5065773;28;20184;-56
2021/09/10 08:04:37;;;;;;;5.80;4.40;;;24.50;1.00;;;;;;5067273;28;20188;-56
2021/09/10 08:07:03;;;;;;;9.00;5.50;;;24.50;1.00;;;;;;5067006;28;20184;-58
2021/09/10 08:09:28;;;;;;;6.33;4.07;;;24.50;1.00;;;;;;5066967;28;20189;-57
2021/09/10 08:11:54;;;;;;;6.77;3.73;;;24.60;1.00;;;;;;5066947;28;20534;-54
2021/09/10 08:14:19;;;;;;;5.53;3.33;;;25.00;1.00;;;;;;5066754;28;20618;-55
2021/09/10 08:16:45;;;;;;;4.00;3.60;;;25.00;1.00;;;;;;5066854;28;20284;-56
2021/09/10 08:19:10;;;;;;;9.13;3.97;;;25.00;1.00;;;;;;5074835;28;20204;-57
2021/09/10 08:21:36;;;;;;;5.43;3.60;;;25.00;1.00;;;;;;5086662;28;20190;-56
2021/09/10 08:24:02;;;;;;;9.73;4.43;;;24.90;1.00;;;;;;5087172;28;20200;-56
2021/09/10 08:26:27;;;;;;;4.30;3.90;;;24.80;1.00;;;;;;5086158;28;20572;-56
2021/09/10 08:28:53;;;;;;;7.57;3.83;;;24.70;1.00;;;;;;5086822;28;20180;-56
2021/09/10 08:31:18;;;;;;;11.33;4.00;;;24.80;1.00;;;;;;5086738;28;20183;-56
2021/09/10 08:33:44;;;;;;;4.83;4.33;;;24.90;1.00;;;;;;5086617;28;20218;-55
2021/09/10 08:36:10;;;;;;;7.70;3.90;;;25.10;1.00;;;;;;5086072;28;20608;-58
2021/09/10 08:38:35;;;;;;;9.43;4.47;;;25.30;1.00;;;;;;5086490;28;20176;-56
2021/09/10 08:41:04;;;;;;;6.03;3.97;;;25.20;1.00;;;;;;5086690;28;20187;-58
2021/09/10 08:43:30;;;;;;;5.57;3.70;;;25.20;1.00;;;;;;5066252;28;20186;-56
2021/09/10 08:45:58;;;;;;;6.03;4.67;;;25.10;1.00;;;;;;5065981;28;20466;-57
2021/09/10 08:48:24;;;;;;;4.87;3.97;;;25.00;1.00;;;;;;5057599;28;21328;-58
2021/09/10 08:50:50;;;;;;;4.23;3.80;;;24.90;1.00;;;;;;5052929;28;20897;-55
2021/09/10 08:53:16;;;;;;;5.70;4.47;;;24.80;1.00;;;;;;5052954;28;20437;-56
2021/09/10 08:55:43;;;;;;;4.77;4.10;;;;;;;;;;5052793;28;20448;-57
2021/09/10 08:58:09;;;;;;;5.00;4.20;;;24.60;1.00;;;;;;5052464;28;20232;-56
2021/09/10 09:00:36;;;;;;;9.37;4.20;;;24.70;1.00;;;;;;5072772;28;20413;-57
2021/09/10 09:03:05;;;;;;;4.70;4.03;;;24.90;1.00;;;;;;5072855;28;20402;-55
2021/09/10 09:05:32;;;;;;;6.23;4.40;;;25.00;1.00;;;;;;5072625;28;20459;-56
2021/09/10 09:08:16;;;;;;;7.80;4.90;;;25.30;1.00;;;;;;5072902;28;20430;-56
2021/09/10 09:10:57;;;;;;;5.17;3.70;;;25.40;1.00;;;;;;5071217;28;20500;-57
2021/09/10 09:13:42;;;;;;;6.13;4.13;;;25.20;1.00;;;;;;5072484;28;20563;-57
2021/09/10 09:16:26;;;;;;;6.50;4.70;;;25.00;1.00;;;;;;5054778;28;20430;-56
2021/09/10 09:19:00;;;;;;;7.00;4.43;;;25.00;1.00;;;;;;5052420;28;20513;-57
2021/09/10 09:21:52;;;;;;;5.70;4.23;;;25.20;1.00;;;;;;5052335;28;20446;-57
2021/09/10 09:24:22;;;;;;;9.17;4.60;;;25.50;1.00;;;;;;5052646;28;20797;-56
2021/09/10 09:26:51;;;;;;;9.53;3.73;;;25.90;1.00;;;;;;5052381;28;20467;-56
2021/09/10 09:29:21;;;;;;;8.23;4.53;;;26.10;1.00;;;;;;5052255;28;20506;-55
2021/09/10 09:31:58;;;;;;;7.63;4.63;;;26.40;1.00;;;;;;5051935;28;20479;-56
2021/09/10 09:34:48;;;;;;;7.60;5.10;;;26.70;1.00;;;;;;5052518;28;20426;-57
2021/09/10 09:37:15;;;;;;;10.07;4.53;;;26.80;1.00;;;;;;5050765;28;20540;-56
2021/09/10 09:40:01;;;;;;;6.20;4.57;;;26.60;1.00;;;;;;5052073;28;20420;-56
2021/09/10 09:42:34;;;;;;;5.63;4.57;;;26.70;1.00;;;;;;5052143;28;20419;-54
2021/09/10 09:45:13;;;;;;;6.20;4.33;;;27.20;1.00;;;;;;5051611;28;20977;-54
2021/09/10 09:47:41;;;;;;;7.50;5.00;;;27.30;1.00;;;;;;5051819;28;20408;-57
2021/09/10 09:50:09;;;;;;;9.63;4.53;;;27.30;1.00;;;;;;5051741;28;20499;-57
2021/09/10 09:52:35;;;;;;;9.03;4.90;;;27.60;1.00;;;;;;5051913;28;20516;-56
2021/09/10 09:55:03;;;;;;;6.37;4.57;;;27.70;1.00;;;;;;5050511;28;20466;-57
2021/09/10 09:57:29;;;;;;;6.00;4.73;;;27.70;1.00;;;;;;5050319;28;20458;-56
2021/09/10 09:59:56;;;;;;;5.90;5.20;;;27.70;1.00;;;;;;5048499;28;20936;-57
2021/09/10 10:02:22;;;;;;;5.57;4.60;;;27.80;1.00;;;;;;5050417;28;20433;-55
2021/09/10 10:04:48;;;;;;;6.30;5.70;;;28.00;1.00;;;;;;5051564;28;20457;-56
2021/09/10 10:07:15;;;;;;;8.00;5.30;;;28.10;1.00;;;;;;5050339;28;20566;-57
2021/09/10 10:09:43;;;;;;;7.70;5.60;;;28.10;1.00;;;;;;5050507;28;20259;-55
2021/09/10 10:12:11;;;;;;;7.80;5.27;;;28.20;1.00;;;;;;5051092;28;20467;-58
2021/09/10 10:14:39;;;;;;;9.63;5.67;;;28.40;1.00;;;;;;5065550;28;20448;-56
2021/09/10 10:17:25;;;;;;;6.63;5.87;;;28.80;1.00;;;;;;5070885;28;20505;-58
2021/09/10 10:19:51;;;;;;;5.60;5.00;;;28.90;1.00;;;;;;5057031;28;20435;-56
2021/09/10 10:22:32;;;;;;;7.80;5.50;;;29.00;1.00;;;;;;5056750;28;20413;-57
2021/09/10 10:24:58;;;;;;;9.00;5.60;;;28.90;1.00;;;;;;5070932;28;20431;-58
2021/09/10 10:27:44;;;;;;;6.17;5.67;;;29.00;1.00;;;;;;5071664;28;20461;-55
2021/09/10 10:30:18;;;;;;;6.70;6.10;;;29.20;1.00;;;;;;5070284;28;20874;-56
2021/09/10 10:32:52;;;;;;;6.23;5.40;;;29.40;1.00;;;;;;5056302;28;20813;-56
2021/09/10 10:35:40;;;;;;;6.80;6.00;;;29.60;1.00;;;;;;5050645;28;20449;-56
2021/09/10 10:38:08;;;;;;;8.33;6.33;;;29.50;1.00;;;;;;5050492;28;20514;-56
2021/09/10 10:40:34;;;;;;;10.30;6.00;;;29.60;1.00;;;;;;5050824;28;20455;-56
2021/09/10 10:43:03;;;;;;;7.90;6.03;;;29.50;1.00;;;;;;5050620;28;20839;-56
2021/09/10 10:46:02;;;;;;;7.80;6.00;;;29.50;1.00;;;;;;5050882;28;20181;-55
2021/09/10 10:48:32;;;;;;;7.60;6.20;;;29.90;1.00;;;;;;5048620;28;20442;-56
2021/09/10 10:51:01;;;;;;;7.57;6.53;;;30.10;1.00;;;;;;5050289;28;20440;-56
2021/09/10 10:53:34;;;;;;;6.60;5.83;;;30.10;1.00;;;;;;5050584;28;20404;-56
2021/09/10 10:56:19;;;;;;;7.93;6.13;;;30.10;1.00;;;;;;5050618;28;20447;-56
2021/09/10 10:58:45;;;;;;;8.33;5.80;;;30.50;1.00;;;;;;5050356;28;20537;-57
2021/09/10 11:01:10;;;;;;;6.40;5.77;;;30.30;1.00;;;;;;5050199;28;20514;-56
2021/09/10 11:03:36;;;;;;;6.43;5.80;;;30.10;1.00;;;;;;5048828;28;20198;-55
2021/09/10 11:06:25;;;;;;;8.87;5.33;;;30.00;1.00;;;;;;5049070;28;20197;-55
2021/09/10 11:08:51;;;;;;;6.23;5.63;;;30.00;1.00;;;;;;5050517;28;20193;-57
2021/09/10 11:11:17;;;;;;;8.57;6.27;;;30.50;1.00;;;;;;5049888;28;20404;-57
2021/09/10 11:13:43;;;;;;;7.33;5.90;;;30.80;1.00;;;;;;5050340;28;20194;-56
2021/09/10 11:16:10;;;;;;;6.33;5.73;;;30.60;1.00;;;;;;5049800;28;20731;-56
2021/09/10 11:18:37;;;;;;;6.00;5.50;;;30.30;1.00;;;;;;5050042;28;20183;-57
2021/09/10 11:21:08;;;;;;;6.87;6.27;;;30.30;1.00;;;;;;5050211;28;20533;-55
2021/09/10 11:23:38;;;;;;;6.50;6.00;;;30.10;1.00;;;;;;5048832;28;20416;-56
2021/09/10 11:26:07;;;;;;;8.23;6.30;;;30.00;1.00;;;;;;5048964;28;20783;-57
2021/09/10 11:28:34;;;;;;;6.87;6.17;;;30.20;1.00;;;;;;5049089;28;20420;-56
2021/09/10 11:31:00;;;;;;;6.47;5.90;;;30.10;1.00;;;;;;5049890;28;20553;-56
2021/09/10 11:33:26;;;;;;;6.70;6.10;;;30.10;1.00;;;;;;5049197;28;20928;-57
2021/09/10 11:35:53;;;;;;;8.03;6.27;;;30.10;1.00;;;;;;5049834;28;20272;-56
2021/09/10 11:38:24;;;;;;;7.20;6.17;;;29.90;1.00;;;;;;5049813;28;20249;-56
2021/09/10 11:40:52;;;;;;;9.63;6.20;;;29.60;1.00;;;;;;5049708;28;20431;-56
2021/09/10 11:43:20;;;;;;;9.30;6.30;;;29.20;1.00;;;;;;5049801;28;20479;-56
2021/09/10 11:45:52;;;;;;;8.47;6.20;;;29.00;1.00;;;;;;5048550;28;20799;-56
2021/09/10 11:48:39;;;;;;;9.83;7.10;;;28.90;1.00;;;;;;5049756;28;20420;-56
2021/09/10 11:51:15;;;;;;;7.23;6.40;;;28.70;1.00;;;;;;5029287;28;20863;-56
2021/09/10 11:53:48;;;;;;;8.13;6.27;;;28.60;1.00;;;;;;5048618;28;20441;-57
2021/09/10 11:56:18;;;;;;;7.13;6.47;;;28.60;1.00;;;;;;5048665;28;20475;-58
2021/09/10 11:58:48;;;;;;;7.83;6.30;;;28.60;1.00;;;;;;5049588;28;20766;-57
2021/09/10 12:01:13;;;;;;;10.20;7.30;;;28.60;1.00;;;;;;5048824;28;20874;-57
2021/09/10 12:03:49;;;;;;;7.07;6.47;;;28.80;1.00;;;;;;5049345;28;20443;-55
2021/09/10 12:06:20;;;;;;;8.47;6.53;;;29.30;1.00;;;;;;5047227;28;20219;-57
2021/09/10 12:09:05;;;;;;;8.00;6.27;;;29.80;1.00;;;;;;5049618;28;20751;-56
2021/09/10 12:11:30;;;;;;;9.80;6.57;;;30.00;1.00;;;;;;5049639;28;20453;-56
2021/09/10 12:13:56;;;;;;;11.00;7.30;;;29.90;1.00;;;;;;5049412;28;20428;-56
2021/09/10 12:16:21;;;;;;;9.47;6.20;;;29.90;1.00;;;;;;5049735;28;20289;-56
2021/09/10 12:19:04;;;;;;;8.43;7.20;;;30.10;1.00;;;;;;5049231;28;20179;-56
2021/09/10 12:21:31;;;;;;;7.57;6.57;;;30.40;1.00;;;;;;5049420;28;20186;-56
2021/09/10 12:24:10;;;;;;;7.73;6.50;;;30.10;1.00;;;;;;5051707;28;20436;-56
2021/09/10 12:26:55;;;;;;;6.77;6.07;;;29.60;1.00;;;;;;5053168;28;20789;-56
2021/09/10 12:29:28;;;;;;;7.03;6.43;;;29.50;1.00;;;;;;5053261;28;20415;-56
2021/09/10 12:31:54;;;;;;;8.43;6.70;;;29.60;1.00;;;;;;5052786;28;20409;-56
2021/09/10 12:34:20;;;;;;;7.00;5.70;;;29.90;1.00;;;;;;5052988;28;20846;-57
2021/09/10 12:36:47;;;;;;;7.60;5.50;;;30.10;1.00;;;;;;5052563;28;20491;-57
2021/09/10 12:39:16;;;;;;;5.97;5.37;;;30.30;1.00;;;;;;5052968;28;20179;-57
2021/09/10 12:41:43;;;;;;;9.60;5.53;;;30.30;1.00;;;;;;5052802;28;20420;-57
2021/09/10 12:44:09;;;;;;;5.73;5.30;;;30.30;1.00;;;;;;5052525;28;20471;-56
2021/09/10 12:46:37;;;;;;;9.57;5.80;;;30.20;1.00;;;;;;5052804;28;20452;-56
2021/09/10 12:49:03;;;;;;;7.53;5.53;;;30.20;1.00;;;;;;5052740;28;20933;-57
2021/09/10 12:51:29;;;;;;;5.73;5.23;;;30.20;1.00;;;;;;5052507;28;20535;-56
2021/09/10 12:53:54;;;;;;;6.27;5.13;;;30.10;1.00;;;;;;5052610;28;20882;-55
2021/09/10 12:56:20;;;;;;;6.23;5.43;;;30.10;1.00;;;;;;5052325;28;20533;-56
2021/09/10 12:58:45;;;;;;;6.23;5.60;;;30.00;1.00;;;;;;5052663;28;20663;-57
2021/09/10 13:01:11;;;;;;;5.83;5.33;;;29.90;1.00;;;;;;5051300;28;20188;-57